Time;durP1;ratioP1;P1;durP2;ratioP2;P2;SDS_P1;SDS_P2;PMS_P1;PMS_P2;Temp;Humidity;BMP_temperature;BMP_pressure;BME280_temperature;BME280_humidity;BME280_pressure;Samples;Min_cycle;Max_cycle;Signal;HPM_P1;HPM_P2
2023/07/12 00:00:28;;;;;;;6.43;5.90;;;19.50;99.90;;;;;;5033894;28;20491;-68
2023/07/12 00:02:55;;;;;;;7.40;6.67;;;19.40;99.90;;;;;;5031627;28;20481;-68
2023/07/12 00:05:29;;;;;;;7.70;6.87;;;19.40;99.90;;;;;;5028850;28;20457;-68
2023/07/12 00:07:57;;;;;;;6.57;5.93;;;19.40;99.90;;;;;;5031694;28;20572;-68
2023/07/12 00:10:27;;;;;;;6.70;6.10;;;19.40;99.90;;;;;;5035789;28;20457;-67
2023/07/12 00:12:54;;;;;;;5.73;5.23;;;19.40;99.90;;;;;;5029133;28;21014;-69
2023/07/12 00:15:23;;;;;;;4.90;4.50;;;19.30;99.90;;;;;;5028979;28;20451;-68
2023/07/12 00:17:51;;;;;;;5.07;4.67;;;19.30;99.90;;;;;;5030793;28;20499;-69
2023/07/12 00:20:22;;;;;;;4.80;4.40;;;19.30;99.90;;;;;;5028356;28;20457;-69
2023/07/12 00:22:51;;;;;;;4.90;4.43;;;19.30;99.90;;;;;;5031603;28;20917;-68
2023/07/12 00:25:21;;;;;;;5.40;4.20;;;19.30;99.90;;;;;;5030422;28;20454;-68
2023/07/12 00:27:49;;;;;;;5.43;4.97;;;19.30;99.90;;;;;;5029174;28;20659;-68
2023/07/12 00:30:19;;;;;;;4.80;4.40;;;19.30;99.90;;;;;;5030970;28;21021;-68
2023/07/12 00:32:51;;;;;;;4.97;4.50;;;19.40;99.90;;;;;;5034628;28;20464;-68
2023/07/12 00:35:20;;;;;;;4.70;4.30;;;19.40;99.90;;;;;;5029957;28;20456;-68
2023/07/12 00:37:48;;;;;;;6.57;4.70;;;19.40;99.90;;;;;;5028085;28;20482;-67
2023/07/12 00:40:41;;;;;;;5.23;4.80;;;19.40;99.90;;;;;;5029090;28;21476;-68
2023/07/12 00:43:15;;;;;;;4.77;4.37;;;19.40;99.90;;;;;;5028661;28;21031;-67
2023/07/12 00:45:44;;;;;;;4.50;4.10;;;19.40;99.90;;;;;;5029772;28;20615;-68
2023/07/12 00:48:12;;;;;;;4.00;3.70;;;19.40;99.90;;;;;;5029447;28;20482;-67
2023/07/12 00:50:40;;;;;;;3.93;3.63;;;19.40;99.90;;;;;;5029381;28;20452;-67
2023/07/12 00:53:14;;;;;;;3.63;3.33;;;19.40;99.90;;;;;;5027032;28;20574;-67
2023/07/12 00:56:06;;;;;;;3.37;3.17;;;19.40;99.90;;;;;;5030606;28;20518;-68
2023/07/12 00:58:36;;;;;;;4.10;3.70;;;19.50;99.90;;;;;;5029235;28;20530;-69
2023/07/12 01:01:06;;;;;;;3.87;3.53;;;19.50;99.90;;;;;;5028964;28;20665;-67
2023/07/12 01:03:41;;;;;;;3.20;3.00;;;19.50;99.90;;;;;;5031387;28;20489;-67
2023/07/12 01:06:12;;;;;;;3.33;3.07;;;19.50;99.90;;;;;;5028650;28;20506;-67
2023/07/12 01:08:41;;;;;;;5.37;3.70;;;19.60;99.90;;;;;;5034161;28;20999;-68
2023/07/12 01:11:12;;;;;;;4.13;2.97;;;19.60;99.90;;;;;;5026365;28;20460;-67
2023/07/12 01:13:41;;;;;;;3.87;3.57;;;19.60;99.90;;;;;;5029911;28;20480;-67
2023/07/12 01:16:09;;;;;;;4.00;3.60;;;19.60;99.90;;;;;;5029678;28;20445;-67
2023/07/12 01:18:36;;;;;;;3.70;3.40;;;19.60;99.90;;;;;;5028959;28;20469;-67
2023/07/12 01:21:10;;;;;;;3.63;3.33;;;19.70;99.90;;;;;;5028859;28;21046;-67
2023/07/12 01:23:39;;;;;;;3.33;3.03;;;19.70;99.90;;;;;;5027931;28;20974;-67
2023/07/12 01:26:25;;;;;;;3.30;2.77;;;19.70;99.90;;;;;;5028445;28;20544;-68
2023/07/12 01:28:55;;;;;;;3.27;2.90;;;19.70;99.90;;;;;;5027831;28;20496;-67
2023/07/12 01:31:23;;;;;;;3.60;3.17;;;19.70;99.90;;;;;;5025212;28;20462;-67
2023/07/12 01:33:50;;;;;;;5.60;3.40;;;19.70;99.90;;;;;;5029597;28;20576;-66
2023/07/12 01:36:19;;;;;;;5.00;3.10;;;19.70;99.90;;;;;;5028258;28;20542;-67
2023/07/12 01:38:46;;;;;;;4.90;3.80;;;19.70;99.90;;;;;;5034467;28;20480;-68
2023/07/12 01:41:13;;;;;;;3.77;3.47;;;19.70;99.90;;;;;;5029554;28;20553;-67
2023/07/12 01:43:41;;;;;;;3.67;3.37;;;19.70;99.90;;;;;;5028867;28;20464;-67
2023/07/12 01:46:08;;;;;;;3.50;3.20;;;19.70;99.90;;;;;;5028934;28;20452;-67
2023/07/12 01:48:35;;;;;;;5.43;3.70;;;19.70;99.90;;;;;;5028911;28;20477;-67
2023/07/12 01:51:02;;;;;;;4.17;3.80;;;19.60;99.90;;;;;;5027180;28;20560;-67
2023/07/12 01:53:31;;;;;;;4.03;3.73;;;19.50;99.90;;;;;;5029832;28;20490;-69
2023/07/12 01:55:59;;;;;;;4.67;3.53;;;19.50;99.90;;;;;;5025274;28;20520;-67
2023/07/12 01:58:26;;;;;;;3.70;3.40;;;19.50;99.90;;;;;;5034062;28;21004;-67
2023/07/12 02:00:54;;;;;;;6.03;3.70;;;19.50;99.90;;;;;;5036552;28;20463;-67
2023/07/12 02:03:21;;;;;;;6.03;3.50;;;19.50;99.90;;;;;;5029689;28;20457;-67
2023/07/12 02:05:48;;;;;;;5.07;3.63;;;19.50;99.90;;;;;;5026567;28;20488;-68
2023/07/12 02:08:16;;;;;;;3.73;3.43;;;19.50;99.90;;;;;;5028271;28;20551;-67
2023/07/12 02:10:44;;;;;;;3.67;3.37;;;19.50;99.90;;;;;;5029447;28;21031;-68
2023/07/12 02:13:12;;;;;;;5.60;3.40;;;19.50;99.90;;;;;;5032329;28;21204;-67
2023/07/12 02:15:39;;;;;;;4.00;3.60;;;19.50;99.90;;;;;;5026980;28;20480;-68
2023/07/12 02:18:07;;;;;;;3.63;3.27;;;19.50;99.90;;;;;;5027725;28;20565;-68
2023/07/12 02:20:34;;;;;;;4.80;3.60;;;19.60;99.90;;;;;;5029252;28;20453;-68
2023/07/12 02:23:01;;;;;;;4.40;3.40;;;19.50;99.90;;;;;;5029958;28;20487;-68
2023/07/12 02:25:28;;;;;;;4.20;3.90;;;19.50;99.90;;;;;;5026558;28;21025;-68
2023/07/12 02:27:56;;;;;;;5.33;3.90;;;19.60;99.90;;;;;;5034271;28;21039;-68
2023/07/12 02:30:27;;;;;;;4.33;3.93;;;19.50;99.90;;;;;;5034641;28;20552;-67
2023/07/12 02:32:55;;;;;;;5.70;3.50;;;19.60;99.90;;;;;;5042094;28;20558;-67
2023/07/12 02:35:27;;;;;;;4.10;3.80;;;19.50;99.90;;;;;;5026813;28;20543;-68
2023/07/12 02:37:54;;;;;;;4.70;3.80;;;19.60;99.90;;;;;;5027705;28;20476;-68
2023/07/12 02:40:24;;;;;;;3.93;3.60;;;19.60;99.90;;;;;;5031447;28;20544;-67
2023/07/12 02:42:51;;;;;;;4.43;4.03;;;19.60;99.90;;;;;;5030806;28;20443;-67
2023/07/12 02:45:19;;;;;;;4.27;3.80;;;19.60;99.90;;;;;;5031124;28;20448;-67
2023/07/12 02:47:46;;;;;;;4.30;3.90;;;19.50;99.90;;;;;;5031581;28;20903;-67
2023/07/12 02:50:14;;;;;;;4.40;3.80;;;19.50;99.90;;;;;;5030830;28;20514;-68
2023/07/12 02:52:40;;;;;;;4.73;4.13;;;19.50;99.90;;;;;;5031242;28;20475;-68
2023/07/12 02:55:08;;;;;;;5.10;3.97;;;19.60;99.90;;;;;;5031352;28;20490;-68
2023/07/12 02:57:35;;;;;;;5.90;4.30;;;19.50;99.90;;;;;;5030712;28;20480;-69
2023/07/12 03:00:02;;;;;;;5.00;4.17;;;19.40;99.90;;;;;;5029473;28;20514;-69
2023/07/12 03:02:31;;;;;;;4.87;4.33;;;19.40;99.90;;;;;;5031596;28;20855;-69
2023/07/12 03:04:58;;;;;;;9.30;4.37;;;19.40;99.90;;;;;;5037616;28;20488;-69
2023/07/12 03:07:25;;;;;;;4.90;4.50;;;19.30;99.90;;;;;;5030464;28;20559;-69
2023/07/12 03:09:56;;;;;;;4.90;4.40;;;19.30;99.90;;;;;;5030720;28;20466;-69
2023/07/12 03:12:24;;;;;;;4.70;4.33;;;19.30;99.90;;;;;;5031574;28;20626;-69
2023/07/12 03:14:52;;;;;;;4.33;4.03;;;19.30;99.90;;;;;;5031227;28;20463;-69
2023/07/12 03:17:19;;;;;;;6.10;4.43;;;19.30;99.90;;;;;;5035098;28;20537;-69
2023/07/12 03:19:48;;;;;;;4.40;3.90;;;19.30;99.90;;;;;;5031825;28;20456;-69
2023/07/12 03:22:15;;;;;;;4.50;4.10;;;19.30;99.90;;;;;;5044891;28;20484;-69
2023/07/12 03:24:42;;;;;;;4.93;4.40;;;19.20;99.90;;;;;;5030103;28;20447;-69
2023/07/12 03:27:09;;;;;;;4.50;4.10;;;19.30;99.90;;;;;;5030884;28;20996;-69
2023/07/12 03:29:36;;;;;;;5.03;4.23;;;19.30;99.90;;;;;;5030117;28;20451;-69
2023/07/12 03:32:05;;;;;;;5.23;4.73;;;19.20;99.90;;;;;;5030390;28;20468;-69
2023/07/12 03:34:32;;;;;;;5.13;4.30;;;19.20;99.90;;;;;;5032692;28;20487;-69
2023/07/12 03:37:01;;;;;;;5.23;3.97;;;19.20;99.90;;;;;;5030527;28;20463;-67
2023/07/12 03:39:28;;;;;;;4.70;3.83;;;19.20;99.90;;;;;;5029940;28;20448;-71
2023/07/12 03:41:56;;;;;;;5.60;3.77;;;19.30;99.90;;;;;;5036530;28;20972;-73
2023/07/12 03:44:23;;;;;;;5.60;3.93;;;19.30;99.90;;;;;;5028946;28;20462;-70
2023/07/12 03:46:50;;;;;;;4.87;3.60;;;19.40;99.90;;;;;;5029785;28;20459;-71
2023/07/12 03:49:17;;;;;;;4.90;3.90;;;19.40;99.90;;;;;;5031213;28;20467;-69
2023/07/12 03:51:44;;;;;;;4.90;3.40;;;19.50;99.90;;;;;;5027739;28;20470;-69
2023/07/12 03:54:13;;;;;;;4.70;3.77;;;19.50;99.90;;;;;;5028768;28;21021;-69
2023/07/12 03:56:40;;;;;;;4.10;3.70;;;19.60;99.90;;;;;;5029328;28;20453;-69
2023/07/12 03:59:08;;;;;;;4.00;3.67;;;19.60;99.90;;;;;;5027980;28;21029;-69
2023/07/12 04:01:35;;;;;;;4.63;3.90;;;19.70;99.90;;;;;;5029987;28;20461;-70
2023/07/12 04:04:02;;;;;;;4.20;3.70;;;19.70;99.90;;;;;;5030424;28;20537;-70
2023/07/12 04:06:29;;;;;;;8.07;4.27;;;19.80;99.90;;;;;;5030984;28;20479;-68
2023/07/12 04:08:56;;;;;;;5.00;4.00;;;19.80;99.90;;;;;;5028975;28;20486;-68
2023/07/12 04:11:28;;;;;;;3.87;3.57;;;19.80;99.90;;;;;;5026893;28;20473;-68
2023/07/12 04:13:55;;;;;;;5.40;4.00;;;19.80;99.90;;;;;;5028034;28;20560;-68
2023/07/12 04:16:24;;;;;;;5.73;4.13;;;19.80;99.90;;;;;;5030120;28;20881;-68
2023/07/12 04:18:51;;;;;;;5.30;4.43;;;19.80;99.90;;;;;;5029414;28;21021;-68
2023/07/12 04:21:18;;;;;;;7.00;4.40;;;19.80;99.90;;;;;;5029112;28;20457;-69
2023/07/12 04:23:47;;;;;;;6.30;4.13;;;19.80;99.90;;;;;;5037052;28;20466;-69
2023/07/12 04:26:17;;;;;;;4.23;3.77;;;19.80;99.90;;;;;;5029810;28;20455;-69
2023/07/12 04:28:49;;;;;;;5.40;4.13;;;19.80;99.90;;;;;;5029874;28;20479;-68
2023/07/12 04:31:17;;;;;;;5.20;4.27;;;19.90;99.90;;;;;;5028308;28;20544;-68
2023/07/12 04:33:45;;;;;;;5.43;4.40;;;19.90;99.90;;;;;;5031400;28;20490;-67
2023/07/12 04:36:13;;;;;;;6.13;4.60;;;19.90;99.90;;;;;;5028240;28;20490;-69
2023/07/12 04:38:41;;;;;;;6.37;4.50;;;19.90;99.90;;;;;;5030093;28;20480;-70
2023/07/12 04:41:08;;;;;;;6.10;4.00;;;20.00;99.90;;;;;;5025213;28;20456;-68
2023/07/12 04:43:35;;;;;;;5.33;4.27;;;20.00;99.90;;;;;;5018979;28;20544;-69
2023/07/12 04:46:04;;;;;;;6.40;4.57;;;20.10;99.90;;;;;;5028694;28;20466;-70
2023/07/12 04:48:31;;;;;;;7.77;4.20;;;20.20;99.90;;;;;;5029264;28;20620;-68
2023/07/12 04:50:58;;;;;;;5.03;4.37;;;20.30;99.90;;;;;;5026437;28;20543;-68
2023/07/12 04:53:25;;;;;;;5.27;4.27;;;20.40;99.90;;;;;;5025383;28;20563;-69
2023/07/12 04:55:52;;;;;;;6.50;4.20;;;20.60;99.90;;;;;;5027394;28;20890;-67
2023/07/12 04:58:20;;;;;;;4.93;4.30;;;20.70;99.90;;;;;;5028160;28;20965;-68
2023/07/12 05:00:47;;;;;;;6.30;4.60;;;20.90;99.90;;;;;;5022630;28;20463;-69
2023/07/12 05:03:16;;;;;;;7.17;4.80;;;21.10;99.90;;;;;;5021368;28;20470;-69
2023/07/12 05:05:43;;;;;;;5.77;5.10;;;21.20;99.90;;;;;;5020307;28;20494;-69
2023/07/12 05:08:11;;;;;;;5.93;4.67;;;21.30;99.90;;;;;;5022838;28;20482;-71
2023/07/12 05:10:38;;;;;;;10.47;5.20;;;21.40;99.90;;;;;;5023766;28;20525;-69
2023/07/12 05:13:06;;;;;;;6.47;4.53;;;21.40;99.90;;;;;;5031612;28;20510;-69
2023/07/12 05:15:33;;;;;;;7.07;4.50;;;21.40;99.90;;;;;;5022212;28;21416;-70
2023/07/12 05:18:00;;;;;;;4.90;4.50;;;21.50;99.90;;;;;;5028853;28;20471;-70
2023/07/12 05:20:29;;;;;;;6.70;5.00;;;21.50;99.90;;;;;;5028494;28;20482;-71
2023/07/12 05:22:56;;;;;;;5.23;4.73;;;21.50;99.90;;;;;;5027062;28;20890;-70
2023/07/12 05:25:23;;;;;;;5.53;4.70;;;21.50;99.90;;;;;;5025270;28;20459;-70
2023/07/12 05:27:50;;;;;;;5.93;5.30;;;21.50;99.90;;;;;;5028315;28;20471;-70
2023/07/12 05:30:17;;;;;;;7.17;5.23;;;21.50;99.90;;;;;;5025980;28;20816;-70
2023/07/12 05:32:44;;;;;;;6.03;5.33;;;21.50;99.90;;;;;;5026175;28;20543;-70
2023/07/12 05:35:11;;;;;;;5.93;5.33;;;21.50;99.90;;;;;;5025119;28;20525;-70
2023/07/12 05:37:40;;;;;;;5.83;4.57;;;21.60;99.90;;;;;;5028695;28;20514;-71
2023/07/12 05:40:09;;;;;;;6.00;4.83;;;21.70;99.90;;;;;;5030960;28;20542;-70
2023/07/12 05:42:40;;;;;;;8.47;4.53;;;21.70;99.90;;;;;;5032318;28;20436;-70
2023/07/12 05:45:08;;;;;;;4.67;4.20;;;21.70;99.90;;;;;;5032353;28;20539;-70
2023/07/12 05:47:35;;;;;;;5.83;5.13;;;21.70;99.90;;;;;;5032622;28;20468;-71
2023/07/12 05:50:03;;;;;;;6.23;5.07;;;21.70;99.90;;;;;;5033208;28;20460;-69
2023/07/12 05:52:30;;;;;;;5.57;5.07;;;21.70;99.90;;;;;;5029933;28;20470;-69
2023/07/12 05:54:58;;;;;;;6.07;4.80;;;21.80;99.90;;;;;;5029416;28;20574;-69
2023/07/12 05:57:25;;;;;;;8.63;5.77;;;21.70;99.90;;;;;;5026898;28;20483;-69
2023/07/12 05:59:52;;;;;;;6.83;4.50;;;21.70;99.90;;;;;;5027663;28;20462;-69
2023/07/12 06:02:19;;;;;;;7.20;5.13;;;21.70;99.90;;;;;;5028947;28;20531;-69
2023/07/12 06:04:46;;;;;;;5.10;4.60;;;21.80;99.90;;;;;;5027606;28;20584;-70
2023/07/12 06:07:13;;;;;;;4.90;4.40;;;21.80;99.90;;;;;;5029509;28;20570;-70
2023/07/12 06:09:40;;;;;;;6.13;5.00;;;21.90;99.90;;;;;;5031421;28;20563;-70
2023/07/12 06:12:10;;;;;;;7.03;5.63;;;21.90;99.90;;;;;;5033530;28;20460;-72
2023/07/12 06:14:38;;;;;;;6.20;5.00;;;22.00;99.90;;;;;;5034607;28;20982;-70
2023/07/12 06:17:06;;;;;;;7.13;5.10;;;22.00;99.90;;;;;;5035024;28;20661;-69
2023/07/12 06:19:33;;;;;;;7.10;4.90;;;22.10;99.90;;;;;;5031159;28;20459;-70
2023/07/12 06:22:01;;;;;;;5.97;4.87;;;22.20;99.90;;;;;;5033165;28;20468;-70
2023/07/12 06:24:27;;;;;;;5.10;4.70;;;22.10;99.90;;;;;;5031759;28;20487;-70
2023/07/12 06:26:55;;;;;;;5.37;4.90;;;22.20;99.90;;;;;;5032139;28;20507;-70
2023/07/12 06:29:24;;;;;;;6.70;5.03;;;22.20;99.90;;;;;;5032186;28;20509;-70
2023/07/12 06:31:54;;;;;;;4.87;4.43;;;22.30;99.90;;;;;;5032123;28;20511;-69
2023/07/12 06:34:21;;;;;;;7.60;5.40;;;22.30;99.90;;;;;;5030706;28;20483;-70
2023/07/12 06:36:48;;;;;;;5.20;4.40;;;22.40;99.90;;;;;;5035051;28;20515;-69
2023/07/12 06:39:16;;;;;;;7.30;5.20;;;22.50;99.90;;;;;;5033193;28;20537;-70
2023/07/12 06:41:43;;;;;;;6.50;5.47;;;22.50;99.90;;;;;;5030902;28;20459;-70
2023/07/12 06:44:10;;;;;;;6.13;5.37;;;22.60;99.90;;;;;;5034326;28;20495;-70
2023/07/12 06:46:38;;;;;;;6.20;4.93;;;22.70;99.90;;;;;;5032137;28;20487;-70
2023/07/12 06:49:05;;;;;;;5.37;4.87;;;22.70;99.90;;;;;;5033277;28;20460;-70
2023/07/12 06:51:32;;;;;;;7.80;5.13;;;22.80;99.90;;;;;;5031479;28;20463;-69
2023/07/12 06:53:59;;;;;;;7.47;5.50;;;22.90;99.90;;;;;;5032268;28;20534;-69
2023/07/12 06:56:26;;;;;;;6.33;5.53;;;23.00;99.90;;;;;;5030946;28;20487;-69
2023/07/12 06:58:54;;;;;;;6.00;5.40;;;23.10;99.90;;;;;;5031445;28;21034;-70
2023/07/12 07:01:20;;;;;;;6.30;4.80;;;23.30;99.90;;;;;;5030615;28;20460;-68
2023/07/12 07:03:49;;;;;;;6.83;5.33;;;23.20;99.90;;;;;;5027534;28;20608;-68
2023/07/12 07:06:17;;;;;;;6.07;4.80;;;23.30;99.90;;;;;;5036122;28;20895;-68
2023/07/12 07:08:44;;;;;;;5.93;5.33;;;23.40;99.90;;;;;;5033585;28;20558;-68
2023/07/12 07:11:11;;;;;;;5.27;4.77;;;23.50;99.90;;;;;;5033576;28;20955;-68
2023/07/12 07:13:38;;;;;;;5.70;5.17;;;23.60;99.90;;;;;;5030288;28;20487;-68
2023/07/12 07:16:06;;;;;;;7.07;5.00;;;23.50;99.90;;;;;;5032704;28;20573;-68
2023/07/12 07:18:32;;;;;;;8.13;4.83;;;23.60;99.90;;;;;;5028914;28;20574;-68
2023/07/12 07:21:01;;;;;;;5.07;4.40;;;23.60;99.90;;;;;;5033823;28;20492;-68
2023/07/12 07:23:28;;;;;;;6.67;4.80;;;23.60;99.90;;;;;;5032469;28;21442;-71
2023/07/12 07:25:55;;;;;;;4.80;3.90;;;23.70;99.90;;;;;;5035362;28;21041;-68
2023/07/12 07:28:22;;;;;;;4.70;4.07;;;23.80;99.90;;;;;;5028273;28;20652;-68
2023/07/12 07:30:55;;;;;;;5.50;4.40;;;23.90;99.90;;;;;;5031026;28;21286;-68
2023/07/12 07:33:22;;;;;;;4.10;3.80;;;24.00;99.90;;;;;;5031939;28;20927;-68
2023/07/12 07:35:49;;;;;;;6.53;4.43;;;24.10;99.90;;;;;;5032710;28;20868;-68
2023/07/12 07:38:18;;;;;;;4.60;4.00;;;24.20;99.90;;;;;;5033795;28;20557;-68
2023/07/12 07:40:45;;;;;;;4.90;4.03;;;24.40;99.90;;;;;;5034943;28;20472;-69
2023/07/12 07:43:14;;;;;;;4.60;4.20;;;24.70;99.90;;;;;;5029735;28;20554;-68
2023/07/12 07:45:42;;;;;;;4.97;4.47;;;24.90;99.90;;;;;;5031290;28;20473;-68
2023/07/12 07:48:10;;;;;;;6.70;4.60;;;25.00;99.90;;;;;;5034587;28;20487;-68
2023/07/12 07:50:37;;;;;;;4.70;4.00;;;25.10;99.90;;;;;;5030663;28;20475;-68
2023/07/12 07:53:05;;;;;;;5.63;3.80;;;25.10;99.90;;;;;;5034637;28;20466;-69
2023/07/12 07:55:33;;;;;;;4.40;4.00;;;25.00;99.90;;;;;;5032733;28;21147;-64
2023/07/12 07:58:00;;;;;;;5.20;4.40;;;25.10;99.90;;;;;;5033607;28;20510;-69
2023/07/12 08:00:27;;;;;;;4.23;3.80;;;25.20;99.90;;;;;;5035055;28;20474;-68
2023/07/12 08:02:54;;;;;;;4.93;4.43;;;25.30;99.90;;;;;;5034133;28;21168;-68
2023/07/12 08:05:21;;;;;;;4.47;4.07;;;25.40;99.90;;;;;;5036820;28;20538;-70
2023/07/12 08:07:48;;;;;;;4.43;4.10;;;25.40;99.90;;;;;;5030046;28;20967;-69
2023/07/12 08:10:18;;;;;;;4.20;3.80;;;25.30;99.90;;;;;;5033596;28;20456;-69
2023/07/12 08:12:48;;;;;;;4.77;4.37;;;25.40;99.90;;;;;;5028489;28;20456;-69
2023/07/12 08:15:15;;;;;;;4.70;3.80;;;25.30;99.90;;;;;;5048694;28;20544;-69
2023/07/12 08:17:43;;;;;;;4.00;3.70;;;25.30;99.90;;;;;;5031231;28;21017;-69
2023/07/12 08:20:10;;;;;;;3.90;3.60;;;25.40;99.90;;;;;;5029404;28;20505;-69
2023/07/12 08:22:38;;;;;;;3.77;3.47;;;25.50;99.90;;;;;;5030116;28;20960;-69
2023/07/12 08:25:06;;;;;;;4.10;3.67;;;25.60;99.90;;;;;;5029950;28;20487;-69
2023/07/12 08:27:33;;;;;;;4.30;3.90;;;25.60;99.90;;;;;;5036564;28;20475;-69
2023/07/12 08:30:02;;;;;;;3.90;3.57;;;25.60;99.90;;;;;;5029565;28;20457;-69
2023/07/12 08:32:32;;;;;;;3.93;3.27;;;25.70;99.90;;;;;;5028293;28;20530;-68
2023/07/12 08:35:00;;;;;;;4.10;3.70;;;25.90;99.90;;;;;;5030142;28;20480;-70
2023/07/12 08:37:28;;;;;;;3.70;3.40;;;26.20;99.90;;;;;;5032020;28;20483;-69
2023/07/12 08:39:55;;;;;;;3.93;3.00;;;26.30;99.90;;;;;;5030551;28;21135;-69
2023/07/12 08:42:29;;;;;;;4.60;2.80;;;26.40;99.90;;;;;;5030277;28;21154;-70
2023/07/12 08:45:02;;;;;;;3.33;3.03;;;26.50;99.90;;;;;;5029187;28;20452;-68
2023/07/12 08:47:32;;;;;;;4.33;3.07;;;26.60;99.90;;;;;;5028596;28;20504;-69
2023/07/12 08:49:59;;;;;;;3.60;3.30;;;26.60;99.90;;;;;;5030662;28;20448;-69
2023/07/12 08:52:34;;;;;;;3.40;3.10;;;26.50;99.90;;;;;;5027517;28;20688;-68
2023/07/12 08:55:03;;;;;;;4.43;3.20;;;26.50;99.90;;;;;;5026424;28;20471;-66
2023/07/12 08:57:31;;;;;;;3.20;2.90;;;26.60;99.90;;;;;;5029682;28;20538;-66
2023/07/12 09:00:06;;;;;;;3.23;2.93;;;26.80;99.90;;;;;;5026117;28;20960;-68
2023/07/12 09:02:35;;;;;;;4.40;2.83;;;26.70;99.90;;;;;;5029092;28;20451;-68
2023/07/12 09:05:12;;;;;;;3.20;3.00;;;26.80;99.90;;;;;;5025307;28;20508;-69
2023/07/12 09:07:46;;;;;;;3.40;2.70;;;26.70;99.90;;;;;;5028265;28;20898;-69
2023/07/12 09:10:13;;;;;;;3.10;2.80;;;26.70;99.90;;;;;;5031510;28;20460;-69
2023/07/12 09:12:40;;;;;;;3.50;2.73;;;26.60;99.90;;;;;;5030983;28;20467;-68
2023/07/12 09:15:12;;;;;;;4.00;2.80;;;26.40;99.90;;;;;;5034023;28;20484;-69
2023/07/12 09:17:43;;;;;;;2.87;2.67;;;26.50;99.90;;;;;;5028924;28;20597;-69
2023/07/12 09:20:23;;;;;;;3.07;2.80;;;26.50;99.90;;;;;;5027010;28;20491;-68
2023/07/12 09:22:50;;;;;;;4.80;3.00;;;26.60;99.90;;;;;;5028137;28;20453;-68
2023/07/12 09:25:22;;;;;;;2.93;2.73;;;26.70;99.90;;;;;;5027643;28;20811;-69
2023/07/12 09:27:50;;;;;;;3.47;2.87;;;26.70;99.90;;;;;;5029595;28;20473;-68
2023/07/12 09:30:22;;;;;;;2.70;2.40;;;26.70;99.90;;;;;;5028615;28;20824;-68
2023/07/12 09:32:50;;;;;;;2.90;2.70;;;26.90;99.90;;;;;;5028479;28;20555;-69
2023/07/12 09:35:25;;;;;;;3.30;2.80;;;26.90;99.90;;;;;;5030121;28;20598;-69
2023/07/12 09:37:58;;;;;;;3.20;3.00;;;27.10;99.90;;;;;;5031931;28;20552;-69
2023/07/12 09:40:25;;;;;;;3.00;2.50;;;27.30;99.90;;;;;;5030166;28;20466;-69
2023/07/12 09:42:57;;;;;;;4.50;2.53;;;27.40;99.90;;;;;;5034802;28;20463;-69
2023/07/12 09:45:32;;;;;;;3.00;2.80;;;27.70;99.90;;;;;;5032135;28;20455;-70
2023/07/12 09:48:06;;;;;;;2.97;2.77;;;28.00;99.90;;;;;;5031354;28;20505;-69
2023/07/12 09:50:40;;;;;;;3.43;3.10;;;28.40;99.90;;;;;;5032544;28;20983;-69
2023/07/12 09:53:18;;;;;;;2.97;2.70;;;28.40;99.90;;;;;;5033506;28;20455;-70
2023/07/12 09:55:51;;;;;;;3.60;2.67;;;28.50;99.90;;;;;;5030525;28;20568;-69
2023/07/12 09:58:24;;;;;;;5.23;2.60;;;28.90;99.90;;;;;;5031115;28;20560;-69
2023/07/12 10:00:59;;;;;;;3.03;2.83;;;29.20;99.90;;;;;;5030073;28;20462;-69
2023/07/12 10:03:32;;;;;;;4.60;3.07;;;29.20;99.90;;;;;;5032176;28;20483;-69
2023/07/12 10:06:03;;;;;;;2.80;2.30;;;29.40;99.90;;;;;;5024191;28;20456;-68
2023/07/12 10:08:45;;;;;;;3.57;3.20;;;29.30;99.90;;;;;;5030818;28;20482;-68
2023/07/12 10:11:21;;;;;;;3.40;2.40;;;29.30;99.90;;;;;;5026479;28;20448;-69
2023/07/12 10:13:53;;;;;;;3.33;3.03;;;29.30;99.90;;;;;;5026358;28;20478;-68
2023/07/12 10:16:27;;;;;;;3.27;2.60;;;29.50;99.90;;;;;;5024814;28;20487;-69
2023/07/12 10:18:56;;;;;;;3.20;2.90;;;30.00;99.90;;;;;;5031757;28;20440;-68
2023/07/12 10:21:26;;;;;;;3.20;2.90;;;30.40;99.90;;;;;;5034848;28;20463;-68
2023/07/12 10:23:56;;;;;;;2.50;2.30;;;31.20;99.50;;;;;;5033254;28;20973;-68
2023/07/12 10:26:23;;;;;;;3.50;2.70;;;31.40;99.10;;;;;;5031968;28;20554;-69
2023/07/12 10:28:57;;;;;;;5.70;3.10;;;30.90;99.60;;;;;;5033047;28;20474;-68
2023/07/12 10:31:32;;;;;;;2.77;2.57;;;31.20;98.30;;;;;;5028053;28;20459;-67
2023/07/12 10:34:17;;;;;;;2.90;2.70;;;31.60;97.30;;;;;;5030153;28;20537;-68
2023/07/12 10:36:46;;;;;;;3.23;2.97;;;31.70;97.20;;;;;;5032327;28;20483;-69
2023/07/12 10:39:13;;;;;;;3.50;2.60;;;31.20;96.70;;;;;;5030405;28;20460;-69
2023/07/12 10:41:46;;;;;;;3.60;3.30;;;31.30;97.60;;;;;;5037813;28;20456;-69
2023/07/12 10:44:19;;;;;;;3.50;2.90;;;31.70;96.80;;;;;;5030383;28;21029;-68
2023/07/12 10:46:53;;;;;;;4.73;2.87;;;31.70;96.20;;;;;;5024957;28;20555;-69
2023/07/12 10:49:40;;;;;;;5.27;3.27;;;31.90;96.50;;;;;;5027137;28;20460;-68
2023/07/12 10:52:19;;;;;;;4.30;3.40;;;32.00;96.00;;;;;;5026458;28;21402;-69
2023/07/12 10:55:06;;;;;;;4.43;2.97;;;31.90;95.40;;;;;;5029559;28;20548;-69
2023/07/12 10:57:39;;;;;;;4.33;3.13;;;32.30;95.40;;;;;;5027110;28;20571;-69
2023/07/12 11:00:22;;;;;;;3.10;2.80;;;32.50;94.30;;;;;;5021114;28;20450;-69
2023/07/12 11:03:02;;;;;;;4.67;3.60;;;32.00;93.60;;;;;;5033974;28;20482;-68
2023/07/12 11:05:42;;;;;;;4.20;3.03;;;31.50;94.30;;;;;;5034865;28;20490;-69
2023/07/12 11:08:35;;;;;;;3.60;3.30;;;30.40;95.20;;;;;;5035542;28;20610;-70
2023/07/12 11:11:41;;;;;;;3.20;2.80;;;30.20;95.80;;;;;;5033522;28;20474;-69
2023/07/12 11:14:25;;;;;;;5.53;3.27;;;30.50;96.40;;;;;;5035463;28;20921;-69
2023/07/12 11:17:10;;;;;;;3.40;2.80;;;30.50;96.80;;;;;;5035631;28;20497;-69
2023/07/12 11:19:46;;;;;;;4.40;3.10;;;30.10;96.20;;;;;;5033849;28;20475;-69
2023/07/12 11:22:20;;;;;;;5.57;3.20;;;30.10;96.70;;;;;;5035678;28;20458;-68
2023/07/12 11:24:53;;;;;;;3.43;3.13;;;30.90;96.80;;;;;;5030317;28;20567;-67
2023/07/12 11:27:40;;;;;;;3.90;3.60;;;31.10;94.90;;;;;;5030706;28;20479;-67
2023/07/12 11:30:37;;;;;;;6.17;2.90;;;31.00;96.20;;;;;;5028978;28;20459;-67
2023/07/12 11:33:15;;;;;;;4.10;3.63;;;30.70;96.30;;;;;;5018831;28;20492;-69
2023/07/12 11:35:47;;;;;;;3.77;3.47;;;30.60;95.70;;;;;;5024254;28;20474;-68
2023/07/12 11:38:18;;;;;;;4.53;4.07;;;30.80;96.90;;;;;;5029867;28;21070;-69
2023/07/12 11:40:49;;;;;;;4.53;3.60;;;31.20;97.00;;;;;;5025650;28;20456;-69
2023/07/12 11:43:36;;;;;;;5.60;3.73;;;31.80;95.90;;;;;;5017390;28;20624;-69
2023/07/12 11:46:10;;;;;;;5.50;3.30;;;32.00;94.90;;;;;;5030274;28;20534;-69
2023/07/12 11:48:37;;;;;;;3.33;3.10;;;31.20;95.10;;;;;;5028879;28;20465;-71
2023/07/12 11:51:09;;;;;;;5.30;3.20;;;30.60;96.70;;;;;;5031715;28;20511;-68
2023/07/12 11:53:37;;;;;;;3.97;3.43;;;30.20;96.90;;;;;;5031568;28;20452;-68
2023/07/12 11:56:05;;;;;;;4.47;4.10;;;29.80;97.70;;;;;;5023123;28;20480;-69
2023/07/12 11:58:32;;;;;;;3.60;3.30;;;29.70;98.30;;;;;;5027310;28;20480;-70
2023/07/12 12:01:00;;;;;;;3.80;3.50;;;30.30;97.60;;;;;;5030739;28;20462;-70
2023/07/12 12:03:27;;;;;;;5.33;4.90;;;31.30;96.80;;;;;;5033511;28;20459;-69
2023/07/12 12:05:54;;;;;;;4.30;3.80;;;31.40;95.80;;;;;;5033995;28;20458;-69
2023/07/12 12:08:25;;;;;;;4.50;3.77;;;31.40;95.60;;;;;;5031664;28;21011;-69
2023/07/12 12:10:54;;;;;;;4.40;4.00;;;32.00;95.10;;;;;;5034495;28;20451;-69
2023/07/12 12:13:33;;;;;;;3.77;3.30;;;32.40;95.00;;;;;;5029642;28;20947;-68
2023/07/12 12:16:06;;;;;;;4.70;3.90;;;33.00;94.10;;;;;;5025218;28;20565;-68
2023/07/12 12:18:35;;;;;;;4.60;4.20;;;32.50;93.70;;;;;;5025806;28;20519;-68
2023/07/12 12:21:05;;;;;;;4.83;4.20;;;31.70;94.50;;;;;;5030091;28;20475;-67
2023/07/12 12:23:36;;;;;;;3.70;3.40;;;30.90;95.90;;;;;;5027570;28;20463;-68
2023/07/12 12:26:13;;;;;;;4.67;3.90;;;30.40;96.60;;;;;;5030563;28;20455;-67
2023/07/12 12:28:42;;;;;;;4.90;4.07;;;30.30;96.60;;;;;;5030269;28;20460;-69
2023/07/12 12:31:18;;;;;;;4.97;4.47;;;30.10;96.90;;;;;;5030375;28;20530;-69
2023/07/12 12:33:47;;;;;;;4.43;4.03;;;30.00;97.10;;;;;;5025962;28;21039;-70
2023/07/12 12:36:22;;;;;;;4.17;3.87;;;30.40;96.40;;;;;;5030014;28;20490;-68
2023/07/12 12:38:59;;;;;;;4.73;4.43;;;31.10;95.70;;;;;;5032638;28;20771;-67
2023/07/12 12:41:35;;;;;;;4.70;4.20;;;31.40;94.70;;;;;;5028625;28;20460;-69
2023/07/12 12:44:15;;;;;;;4.43;4.03;;;32.30;94.20;;;;;;5029106;28;20509;-69
2023/07/12 12:46:43;;;;;;;4.70;3.70;;;32.20;93.50;;;;;;5029741;28;21023;-70
2023/07/12 12:49:22;;;;;;;4.20;3.57;;;31.70;94.90;;;;;;5017987;28;20516;-70
2023/07/12 12:51:51;;;;;;;5.20;3.27;;;31.50;94.50;;;;;;5026029;28;21043;-70
2023/07/12 12:54:19;;;;;;;3.60;3.30;;;32.00;94.20;;;;;;5020407;28;20464;-70
2023/07/12 12:56:47;;;;;;;4.30;4.00;;;32.60;93.20;;;;;;5029935;28;20497;-69
2023/07/12 12:59:17;;;;;;;4.80;4.30;;;33.30;93.00;;;;;;5028076;28;20881;-69
2023/07/12 13:01:45;;;;;;;4.13;3.73;;;33.00;92.20;;;;;;5031751;28;20448;-68